Time;durP1;ratioP1;P1;durP2;ratioP2;P2;SDS_P1;SDS_P2;PMS_P1;PMS_P2;Temp;Humidity;BMP_temperature;BMP_pressure;BME280_temperature;BME280_humidity;BME280_pressure;Samples;Min_cycle;Max_cycle;Signal;HPM_P1;HPM_P2
2021/04/02 00:00:11;;;;;;;1.3;0.9;;;;;;;10.95;82.25098;939.1113;;;;
2021/04/02 00:02:36;;;;;;;0.7;0.7;;;;;;;10.97;82.07129;939.0946;;;;
2021/04/02 00:05:03;;;;;;;1.9;0.8;;;;;;;11;81.86133;939.0765;;;;
2021/04/02 00:07:28;;;;;;;2.4;0.8;;;;;;;11.12;81.18652;939.0859;;;;
2021/04/02 00:09:53;;;;;;;1.3;1.1;;;;;;;11.2;80.59375;938.9574;;;;
2021/04/02 00:12:19;;;;;;;1.6;0.9;;;;;;;11.22;79.91211;939.0385;;;;
2021/04/02 00:14:44;;;;;;;2.8;1.1;;;;;;;11.22;79.47754;939.0361;;;;
2021/04/02 00:17:09;;;;;;;1.1;0.9;;;;;;;11.25;79.22168;938.9789;;;;
2021/04/02 00:19:38;;;;;;;1.7;1;;;;;;;11.11;79.63086;938.9592;;;;
2021/04/02 00:22:03;;;;;;;2.3;1.3;;;;;;;11.09;79.83203;938.9422;;;;
2021/04/02 00:24:28;;;;;;;12.8;0.9;;;;;;;10.96;80.65234;938.9368;;;;
2021/04/02 00:26:53;;;;;;;1.2;0.6;;;;;;;10.94;81.10645;938.8442;;;;
2021/04/02 00:29:19;;;;;;;1.5;1;;;;;;;10.87;81.19629;938.7958;;;;
2021/04/02 00:31:45;;;;;;;1.3;1;;;;;;;10.93;80.64746;938.7549;;;;
2021/04/02 00:34:11;;;;;;;0.8;0.8;;;;;;;10.95;80.03418;938.6778;;;;
2021/04/02 00:36:36;;;;;;;1.7;1.1;;;;;;;10.81;80.2373;938.6559;;;;
2021/04/02 00:39:02;;;;;;;2.1;0.6;;;;;;;10.8;80.66797;938.6674;;;;
2021/04/02 00:41:27;;;;;;;1.3;0.8;;;;;;;10.83;79.66992;938.5684;;;;
2021/04/02 00:43:53;;;;;;;2;1.2;;;;;;;10.68;80.03125;938.6122;;;;
2021/04/02 00:46:19;;;;;;;1.1;0.8;;;;;;;10.67;80.65625;938.5818;;;;
2021/04/02 00:48:45;;;;;;;2.5;1.2;;;;;;;10.71;80.34473;938.5917;;;;
2021/04/02 00:51:10;;;;;;;0.5;0.5;;;;;;;10.59;80.95117;938.5322;;;;
2021/04/02 00:53:37;;;;;;;1.1;0.8;;;;;;;10.57;80.89844;938.4611;;;;
2021/04/02 00:56:02;;;;;;;1.6;0.8;;;;;;;10.64;80.10156;938.4692;;;;
2021/04/02 00:58:29;;;;;;;1;0.9;;;;;;;10.74;79.44727;938.4702;;;;
2021/04/02 01:00:54;;;;;;;1.2;1.1;;;;;;;10.79;78.74707;938.4387;;;;
2021/04/02 01:03:21;;;;;;;1.2;0.6;;;;;;;10.7;79.33789;938.4093;;;;
2021/04/02 01:05:46;;;;;;;9.1;1.2;;;;;;;10.6;80.00488;938.3881;;;;
2021/04/02 01:08:11;;;;;;;4.4;1;;;;;;;10.53;80.50488;938.3716;;;;
2021/04/02 01:10:37;;;;;;;4;1.2;;;;;;;10.66;79.92383;938.358;;;;
2021/04/02 01:13:06;;;;;;;2.6;1.3;;;;;;;10.69;79.27734;938.3439;;;;
2021/04/02 01:15:41;;;;;;;2.4;1.1;;;;;;;10.46;80.62695;938.3279;;;;
2021/04/02 01:18:11;;;;;;;1.2;0.9;;;;;;;10.31;81.5127;938.358;;;;
2021/04/02 01:20:39;;;;;;;1.9;1;;;;;;;10.25;81.60547;938.2786;;;;
2021/04/02 01:23:07;;;;;;;5.6;1.2;;;;;;;10.2;81.80078;938.337;;;;
2021/04/02 01:25:32;;;;;;;6.8;1;;;;;;;10.26;81.27637;938.3359;;;;
2021/04/02 01:28:00;;;;;;;1;0.7;;;;;;;10.22;81.42773;938.3187;;;;
2021/04/02 01:30:26;;;;;;;1.4;0.9;;;;;;;10.32;81.08105;938.2912;;;;
2021/04/02 01:32:51;;;;;;;2.7;0.7;;;;;;;10.46;80.15918;938.2745;;;;
2021/04/02 01:35:20;;;;;;;3.1;1;;;;;;;10.32;80.71582;938.3103;;;;
2021/04/02 01:37:46;;;;;;;2.8;1;;;;;;;10.09;81.25586;938.3613;;;;
2021/04/02 01:40:11;;;;;;;0.9;0.8;;;;;;;10.06;81.71582;938.3943;;;;
2021/04/02 01:42:39;;;;;;;1.4;0.7;;;;;;;10.24;80.99707;938.3453;;;;
2021/04/02 01:45:04;;;;;;;2.2;1.3;;;;;;;10.35;80.7002;938.3497;;;;
2021/04/02 01:47:33;;;;;;;1.5;1;;;;;;;10.42;80.28906;938.2662;;;;
2021/04/02 01:49:58;;;;;;;1.6;1.1;;;;;;;10.43;80.34961;938.2281;;;;
2021/04/02 01:52:24;;;;;;;1.3;1.1;;;;;;;10.48;80.02734;938.2302;;;;
2021/04/02 01:54:49;;;;;;;1.1;1;;;;;;;10.48;79.73047;938.2676;;;;
2021/04/02 01:57:14;;;;;;;1.7;0.9;;;;;;;10.52;79.61328;938.2227;;;;
2021/04/02 01:59:39;;;;;;;1.8;1;;;;;;;10.49;79.6748;938.2494;;;;
2021/04/02 02:02:04;;;;;;;4.5;1.4;;;;;;;10.37;80.00684;938.2344;;;;
2021/04/02 02:04:29;;;;;;;1;0.8;;;;;;;10.24;80.62109;938.2458;;;;
2021/04/02 02:06:55;;;;;;;1;0.7;;;;;;;10.32;80.03125;938.183;;;;
2021/04/02 02:09:20;;;;;;;1;0.6;;;;;;;10.38;79.56348;938.2011;;;;
2021/04/02 02:11:47;;;;;;;2.4;1.3;;;;;;;10.36;79.57031;938.1786;;;;
2021/04/02 02:14:13;;;;;;;6.5;0.8;;;;;;;10.29;79.70801;938.2519;;;;
2021/04/02 02:16:51;;;;;;;1.6;1.1;;;;;;;10.18;79.98145;938.34;;;;
2021/04/02 02:19:19;;;;;;;2.7;1.6;;;;;;;10.01;80.40918;938.2037;;;;
2021/04/02 02:21:46;;;;;;;1.1;1;;;;;;;9.94;80.89551;938.2153;;;;
2021/04/02 02:24:11;;;;;;;0.9;0.8;;;;;;;9.85;81.25488;938.2335;;;;
2021/04/02 02:26:37;;;;;;;1.6;1.1;;;;;;;9.86;81.11035;938.2534;;;;
2021/04/02 02:29:09;;;;;;;0.8;0.6;;;;;;;9.95;80.77246;938.2927;;;;
2021/04/02 02:31:34;;;;;;;0.8;0.7;;;;;;;9.95;80.57813;938.2823;;;;
2021/04/02 02:34:04;;;;;;;1.6;0.8;;;;;;;9.87;80.61035;938.2234;;;;
2021/04/02 02:36:29;;;;;;;2;1.2;;;;;;;9.87;80.49609;938.3164;;;;
2021/04/02 02:38:59;;;;;;;0.3;0.3;;;;;;;9.73;81.26758;938.2992;;;;
2021/04/02 02:41:24;;;;;;;0.9;0.6;;;;;;;9.69;81.57813;938.2733;;;;
2021/04/02 02:43:53;;;;;;;1.3;0.8;;;;;;;9.8;80.91406;938.2094;;;;
2021/04/02 02:46:18;;;;;;;1.6;1.2;;;;;;;9.7;81.26074;938.2321;;;;
2021/04/02 02:48:45;;;;;;;1.3;1;;;;;;;9.76;80.6582;938.2631;;;;
2021/04/02 02:51:10;;;;;;;4.4;0.8;;;;;;;9.81;80.33691;938.2048;;;;
2021/04/02 02:53:39;;;;;;;1;0.7;;;;;;;9.77;80.29395;938.1933;;;;
2021/04/02 02:56:04;;;;;;;2.5;0.8;;;;;;;9.77;80.32813;938.1884;;;;
2021/04/02 02:58:33;;;;;;;1.5;0.9;;;;;;;9.81;79.50293;938.0974;;;;
2021/04/02 03:00:58;;;;;;;1.3;0.8;;;;;;;9.66;80.24121;938.1609;;;;
2021/04/02 03:03:23;;;;;;;1.3;0.5;;;;;;;9.5;80.9502;938.199;;;;
2021/04/02 03:05:51;;;;;;;0.8;0.8;;;;;;;9.43;81.39355;938.1855;;;;
2021/04/02 03:08:17;;;;;;;4.8;0.9;;;;;;;9.48;81.07324;938.2512;;;;
2021/04/02 03:10:42;;;;;;;1.7;1;;;;;;;9.38;81.68066;938.2385;;;;
2021/04/02 03:13:11;;;;;;;0.8;0.6;;;;;;;9.38;81.45313;938.1877;;;;
2021/04/02 03:15:43;;;;;;;1.5;0.9;;;;;;;9.36;81.37988;938.2087;;;;
2021/04/02 03:18:10;;;;;;;3.7;1.5;;;;;;;9.36;80.66211;938.1984;;;;
2021/04/02 03:20:41;;;;;;;1.6;0.9;;;;;;;9.39;80.32715;938.2219;;;;
2021/04/02 03:23:11;;;;;;;1.3;1;;;;;;;9.38;79.85938;938.1844;;;;
2021/04/02 03:25:37;;;;;;;1.1;1;;;;;;;9.36;79.92188;938.1683;;;;
2021/04/02 03:28:07;;;;;;;2.5;1.3;;;;;;;9.34;79.83789;938.1981;;;;
2021/04/02 03:30:41;;;;;;;0.9;0.9;;;;;;;9.34;80.21289;938.191;;;;
2021/04/02 03:33:09;;;;;;;3.6;1.2;;;;;;;9.3;80.03711;938.1556;;;;
2021/04/02 03:35:36;;;;;;;3.7;1.2;;;;;;;9.11;80.66113;938.1605;;;;
2021/04/02 03:38:05;;;;;;;1.8;1;;;;;;;9.05;81.21973;938.2112;;;;
2021/04/02 03:40:30;;;;;;;1;0.9;;;;;;;9.05;80.83301;938.2001;;;;
2021/04/02 03:42:58;;;;;;;1.6;1.3;;;;;;;9;81.1748;938.2341;;;;
2021/04/02 03:45:24;;;;;;;1.9;1.2;;;;;;;9.02;80.89453;938.2219;;;;
2021/04/02 03:47:53;;;;;;;1.6;1.1;;;;;;;9;81.15234;938.2562;;;;
2021/04/02 03:50:18;;;;;;;2.3;1.2;;;;;;;9.02;80.54102;938.2791;;;;
2021/04/02 03:52:43;;;;;;;1.7;1.3;;;;;;;8.92;80.38672;938.247;;;;
2021/04/02 03:55:08;;;;;;;1.4;0.9;;;;;;;8.93;79.89844;938.3219;;;;
2021/04/02 03:57:34;;;;;;;1.1;0.9;;;;;;;8.84;79.56348;938.3563;;;;
2021/04/02 04:00:04;;;;;;;1.2;1;;;;;;;8.78;79.47266;938.3382;;;;
2021/04/02 04:02:41;;;;;;;2.7;1.5;;;;;;;8.48;79.93066;938.3474;;;;
2021/04/02 04:05:06;;;;;;;1.4;1.2;;;;;;;8.33;79.46094;938.3949;;;;
2021/04/02 04:07:31;;;;;;;2.3;1.3;;;;;;;8.24;80.28223;938.3267;;;;
2021/04/02 04:09:58;;;;;;;2.7;1.7;;;;;;;8.19;81.55566;938.3;;;;
2021/04/02 04:12:24;;;;;;;2.9;1.1;;;;;;;8.03;82.66211;938.3446;;;;
2021/04/02 04:14:49;;;;;;;2;1.4;;;;;;;7.97;83.75098;938.3661;;;;
2021/04/02 04:17:26;;;;;;;2.1;1.2;;;;;;;7.92;84.50195;938.3399;;;;
2021/04/02 04:19:51;;;;;;;1.7;1.3;;;;;;;7.93;84.26563;938.2609;;;;
2021/04/02 04:22:21;;;;;;;2.4;1.3;;;;;;;7.99;84.15137;938.3063;;;;
2021/04/02 04:24:46;;;;;;;5.2;1.5;;;;;;;;;;;;;
2021/04/02 04:27:13;;;;;;;2.2;1.3;;;;;;;;;;;;;
2021/04/02 04:29:38;;;;;;;1.8;1.3;;;;;;;;;;;;;
2021/04/02 04:32:05;;;;;;;6.9;1.1;;;;;;;;;;;;;
2021/04/02 04:34:30;;;;;;;1.7;1.1;;;;;;;;;;;;;
2021/04/02 04:36:56;;;;;;;1.4;1;;;;;;;;;;;;;
2021/04/02 04:39:21;;;;;;;3.1;1;;;;;;;;;;;;;
2021/04/02 04:41:48;;;;;;;1.8;1.3;;;;;;;;;;;;;
2021/04/02 04:44:13;;;;;;;3;1.4;;;;;;;;;;;;;
2021/04/02 04:46:40;;;;;;;3.2;1.8;;;;;;;;;;;;;
2021/04/02 04:49:05;;;;;;;2.4;1.8;;;;;;;;;;;;;
2021/04/02 04:51:30;;;;;;;3.4;1.8;;;;;;;;;;;;;
2021/04/02 04:53:56;;;;;;;6.8;3.3;;;;;;;;;;;;;
2021/04/02 04:56:21;;;;;;;3.8;2;;;;;;;;;;;;;
2021/04/02 04:58:47;;;;;;;3.4;1.8;;;;;;;;;;;;;
2021/04/02 05:01:12;;;;;;;4.2;1.8;;;;;;;;;;;;;
2021/04/02 05:03:37;;;;;;;1.5;1.2;;;;;;;;;;;;;
2021/04/02 05:06:02;;;;;;;4.3;2;;;;;;;;;;;;;
2021/04/02 05:08:29;;;;;;;3.3;1.6;;;;;;;;;;;;;
2021/04/02 05:10:54;;;;;;;2.3;1.6;;;;;;;;;;;;;
2021/04/02 05:13:21;;;;;;;3;1.7;;;;;;;;;;;;;
2021/04/02 05:15:49;;;;;;;1.5;1.4;;;;;;;;;;;;;
2021/04/02 05:18:14;;;;;;;10.6;2.1;;;;;;;;;;;;;
2021/04/02 05:20:43;;;;;;;2;1.4;;;;;;;;;;;;;
2021/04/02 05:23:08;;;;;;;2.4;1.3;;;;;;;;;;;;;
2021/04/02 05:25:36;;;;;;;4.3;1;;;;;;;;;;;;;
2021/04/02 05:28:01;;;;;;;2.2;1.4;;;;;;;;;;;;;
2021/04/02 05:30:28;;;;;;;1.4;1.2;;;;;;;;;;;;;
2021/04/02 05:32:53;;;;;;;2;1;;;;;;;;;;;;;
2021/04/02 05:35:19;;;;;;;1.8;1.4;;;;;;;;;;;;;
2021/04/02 05:37:44;;;;;;;2.4;1.3;;;;;;;;;;;;;
2021/04/02 05:40:11;;;;;;;2.7;1.4;;;;;;;;;;;;;
2021/04/02 05:42:36;;;;;;;2.4;1.6;;;;;;;;;;;;;
2021/04/02 05:45:01;;;;;;;2.5;1.4;;;;;;;;;;;;;
2021/04/02 05:47:27;;;;;;;2.4;1.3;;;;;;;;;;;;;
2021/04/02 05:49:53;;;;;;;2.5;1.1;;;;;;;;;;;;;
2021/04/02 05:52:19;;;;;;;4.9;1.9;;;;;;;;;;;;;
2021/04/02 05:54:45;;;;;;;1.7;1.2;;;;;;;;;;;;;
2021/04/02 05:57:12;;;;;;;4.7;1.7;;;;;;;;;;;;;
2021/04/02 05:59:37;;;;;;;2;1.6;;;;;;;;;;;;;
2021/04/02 06:02:05;;;;;;;2.6;1.7;;;;;;;;;;;;;
2021/04/02 06:04:31;;;;;;;1.9;1.4;;;;;;;;;;;;;
2021/04/02 06:06:56;;;;;;;2.1;1.5;;;;;;;;;;;;;
2021/04/02 06:09:21;;;;;;;2.2;1.5;;;;;;;;;;;;;
2021/04/02 06:11:49;;;;;;;2;1.2;;;;;;;;;;;;;
2021/04/02 06:14:14;;;;;;;2.6;1.4;;;;;;;;;;;;;
2021/04/02 06:16:40;;;;;;;2;1.5;;;;;;;;;;;;;
2021/04/02 06:19:13;;;;;;;1.3;1;;;;;;;;;;;;;
2021/04/02 06:21:39;;;;;;;1.9;1.4;;;;;;;;;;;;;
2021/04/02 06:24:04;;;;;;;2.3;1.5;;;;;;;;;;;;;
2021/04/02 06:26:29;;;;;;;1.1;1;;;;;;;;;;;;;
2021/04/02 06:28:56;;;;;;;5.5;1.2;;;;;;;;;;;;;
2021/04/02 06:31:21;;;;;;;1.7;1.2;;;;;;;;;;;;;
2021/04/02 06:33:47;;;;;;;6.5;1.4;;;;;;;;;;;;;
2021/04/02 06:36:12;;;;;;;3.2;0.6;;;;;;;;;;;;;
2021/04/02 06:38:39;;;;;;;1.2;0.7;;;;;;;;;;;;;
2021/04/02 06:41:04;;;;;;;1.7;1.1;;;;;;;;;;;;;
2021/04/02 06:43:30;;;;;;;1.2;0.8;;;;;;;;;;;;;
2021/04/02 06:45:55;;;;;;;2.4;0.7;;;;;;;;;;;;;
2021/04/02 06:48:20;;;;;;;4.6;1.2;;;;;;;;;;;;;
2021/04/02 06:50:46;;;;;;;1.1;1;;;;;;;;;;;;;
2021/04/02 06:53:11;;;;;;;0.8;0.5;;;;;;;;;;;;;
2021/04/02 06:55:37;;;;;;;1.4;1;;;;;;;;;;;;;
2021/04/02 06:58:02;;;;;;;13.9;1.7;;;;;;;;;;;;;
2021/04/02 07:00:27;;;;;;;1.3;1;;;;;;;;;;;;;
2021/04/02 07:02:52;;;;;;;2.4;0.9;;;;;;;;;;;;;
2021/04/02 07:05:17;;;;;;;1.8;1;;;;;;;;;;;;;
2021/04/02 07:07:43;;;;;;;1.4;0.9;;;;;;;;;;;;;
2021/04/02 07:10:08;;;;;;;0.8;0.7;;;;;;;;;;;;;
2021/04/02 07:12:38;;;;;;;1.3;0.6;;;;;;;;;;;;;
2021/04/02 07:15:03;;;;;;;1.7;0.9;;;;;;;;;;;;;
2021/04/02 07:17:28;;;;;;;1.4;1;;;;;;;;;;;;;
2021/04/02 07:19:54;;;;;;;6.4;1.6;;;;;;;;;;;;;
2021/04/02 07:22:19;;;;;;;2.7;1.1;;;;;;;;;;;;;
2021/04/02 07:24:46;;;;;;;3.1;1;;;;;;;;;;;;;
2021/04/02 07:27:11;;;;;;;1.4;0.8;;;;;;;;;;;;;
2021/04/02 07:29:37;;;;;;;1.2;0.9;;;;;;;;;;;;;
2021/04/02 07:32:02;;;;;;;2.1;1.2;;;;;;;;;;;;;
2021/04/02 07:34:28;;;;;;;2.8;1;;;;;;;;;;;;;
2021/04/02 07:36:53;;;;;;;1.1;1;;;;;;;;;;;;;
2021/04/02 07:39:19;;;;;;;1.7;1.3;;;;;;;;;;;;;
2021/04/02 07:41:43;;;;;;;1.6;0.8;;;;;;;;;;;;;
2021/04/02 07:44:10;;;;;;;3;1.5;;;;;;;;;;;;;
2021/04/02 07:46:35;;;;;;;2.7;1;;;;;;;;;;;;;
2021/04/02 07:49:00;;;;;;;1;0.9;;;;;;;;;;;;;
2021/04/02 07:51:25;;;;;;;1.8;1.2;;;;;;;;;;;;;
2021/04/02 07:53:50;;;;;;;3.1;1.6;;;;;;;;;;;;;
2021/04/02 07:56:16;;;;;;;2.3;1.6;;;;;;;;;;;;;
2021/04/02 07:58:41;;;;;;;5;1.7;;;;;;;;;;;;;
2021/04/02 08:01:07;;;;;;;2.2;1.7;;;;;;;;;;;;;
2021/04/02 08:03:32;;;;;;;3.6;1.8;;;;;;;;;;;;;
2021/04/02 08:05:58;;;;;;;3.3;2.1;;;;;;;;;;;;;
2021/04/02 08:08:24;;;;;;;3.9;2.2;;;;;;;;;;;;;
2021/04/02 08:10:48;;;;;;;7.2;2.3;;;;;;;;;;;;;
2021/04/02 08:13:13;;;;;;;4.9;2.5;;;;;;;;;;;;;
2021/04/02 08:15:44;;;;;;;6.3;2.6;;;;;;;;;;;;;
2021/04/02 08:18:10;;;;;;;13;2.4;;;;;;;;;;;;;
2021/04/02 08:20:35;;;;;;;5.6;2.6;;;;;;;;;;;;;
2021/04/02 08:23:00;;;;;;;6.8;3.2;;;;;;;;;;;;;
2021/04/02 08:25:26;;;;;;;6.7;2.7;;;;;;;;;;;;;
2021/04/02 08:27:51;;;;;;;4.4;2.5;;;;;;;;;;;;;
2021/04/02 08:30:18;;;;;;;8;2.6;;;;;;;;;;;;;
2021/04/02 08:32:43;;;;;;;5.5;3.1;;;;;;;;;;;;;
2021/04/02 08:35:09;;;;;;;6.5;3.1;;;;;;;;;;;;;
2021/04/02 08:37:34;;;;;;;5.4;3.1;;;;;;;;;;;;;
2021/04/02 08:40:00;;;;;;;6.1;3.2;;;;;;;;;;;;;
2021/04/02 08:42:24;;;;;;;11;3.2;;;;;;;;;;;;;
2021/04/02 08:44:51;;;;;;;12;2.9;;;;;;;;;;;;;
2021/04/02 08:47:16;;;;;;;8.7;3.1;;;;;;;;;;;;;
2021/04/02 08:49:42;;;;;;;9.1;3.6;;;;;;;;;;;;;
2021/04/02 08:52:08;;;;;;;7;3.3;;;;;;;;;;;;;
2021/04/02 08:54:33;;;;;;;4.5;3.5;;;;;;;;;;;;;
2021/04/02 08:56:58;;;;;;;5.8;3.3;;;;;;;;;;;;;
2021/04/02 08:59:25;;;;;;;8.5;2.8;;;;;;;;;;;;;
2021/04/02 09:01:50;;;;;;;6.8;3.3;;;;;;;;;;;;;
2021/04/02 09:04:16;;;;;;;4.7;3;;;;;;;;;;;;;
2021/04/02 09:06:41;;;;;;;4.6;2.8;;;;;;;;;;;;;
2021/04/02 09:09:08;;;;;;;5.4;3.5;;;;;;;;;;;;;
2021/04/02 09:11:33;;;;;;;5.3;3.3;;;;;;;;;;;;;
2021/04/02 09:13:59;;;;;;;10.6;3.5;;;;;;;;;;;;;
2021/04/02 09:16:26;;;;;;;5.4;3.5;;;;;;;;;;;;;
2021/04/02 09:18:51;;;;;;;7.3;4.1;;;;;;;;;;;;;
2021/04/02 09:21:18;;;;;;;7.5;3.3;;;;;;;;;;;;;
2021/04/02 09:23:43;;;;;;;5.2;3.3;;;;;;;;;;;;;
2021/04/02 09:26:10;;;;;;;5.7;3.8;;;;;;;;;;;;;
2021/04/02 09:28:35;;;;;;;10.2;3.7;;;;;;;;;;;;;
2021/04/02 09:31:01;;;;;;;7.1;3.2;;;;;;;;;;;;;
2021/04/02 09:33:26;;;;;;;7.5;3.4;;;;;;;;;;;;;
2021/04/02 09:35:51;;;;;;;4.1;3.1;;;;;;;;;;;;;
2021/04/02 09:38:16;;;;;;;8.6;3.6;;;;;;;;;;;;;
2021/04/02 09:40:43;;;;;;;5.1;3.4;;;;;;;;;;;;;
2021/04/02 09:43:08;;;;;;;7.6;3.2;;;;;;;;;;;;;
2021/04/02 09:45:36;;;;;;;7;3.5;;;;;;;;;;;;;
2021/04/02 09:48:02;;;;;;;5.7;3.7;;;;;;;;;;;;;
2021/04/02 09:50:26;;;;;;;10.8;4.1;;;;;;;;;;;;;
2021/04/02 09:52:51;;;;;;;7.3;4;;;;;;;;;;;;;
2021/04/02 09:55:16;;;;;;;5.5;3.5;;;;;;;;;;;;;
2021/04/02 09:57:41;;;;;;;9.5;4.5;;;;;;;;;;;;;
2021/04/02 10:00:07;;;;;;;8.9;3.9;;;;;;;;;;;;;
2021/04/02 10:02:34;;;;;;;5.5;4;;;;;;;;;;;;;
2021/04/02 10:04:57;;;;;;;5.3;3.6;;;;;;;;;;;;;
2021/04/02 10:07:22;;;;;;;6.9;4.1;;;;;;;;;;;;;
2021/04/02 10:09:49;;;;;;;7.8;3.8;;;;;;;;;;;;;
2021/04/02 10:12:14;;;;;;;10.7;4;;;;;;;;;;;;;
2021/04/02 10:14:40;;;;;;;6;3.8;;;;;;;;;;;;;
2021/04/02 10:17:09;;;;;;;6.9;4.1;;;;;;;;;;;;;
2021/04/02 10:19:32;;;;;;;6.9;4.5;;;;;;;;;;;;;
2021/04/02 10:21:55;;;;;;;6.9;4.1;;;;;;;;;;;;;
2021/04/02 10:24:20;;;;;;;6.5;3.5;;;;;;;;;;;;;
2021/04/02 10:26:47;;;;;;;4.8;3.4;;;;;;;;;;;;;
2021/04/02 10:29:11;;;;;;;8.8;4.2;;;;;;;;;;;;;
2021/04/02 10:31:36;;;;;;;5.3;2.9;;;;;;;;;;;;;
2021/04/02 10:34:02;;;;;;;7.3;4.7;;;;;;;;;;;;;
2021/04/02 10:36:27;;;;;;;7.1;4.1;;;;;;;;;;;;;
2021/04/02 10:38:53;;;;;;;6;3.6;;;;;;;;;;;;;
2021/04/02 10:41:18;;;;;;;9.4;4.2;;;;;;;;;;;;;
2021/04/02 10:43:43;;;;;;;6.6;4.1;;;;;;;;;;;;;
2021/04/02 10:46:09;;;;;;;7.3;4;;;;;;;;;;;;;
2021/04/02 10:48:36;;;;;;;8.9;5.3;;;;;;;;;;;;;
2021/04/02 10:51:00;;;;;;;6.2;4.2;;;;;;;;;;;;;
2021/04/02 10:53:26;;;;;;;12.9;4.9;;;;;;;;;;;;;
2021/04/02 10:55:51;;;;;;;6.2;4.3;;;;;;;;;;;;;
2021/04/02 10:58:18;;;;;;;9.8;4.2;;;;;;;;;;;;;
2021/04/02 11:00:43;;;;;;;5.6;3.4;;;;;;;;;;;;;
2021/04/02 11:03:11;;;;;;;7.2;4.5;;;;;;;;;;;;;
2021/04/02 11:05:36;;;;;;;14.9;5.6;;;;;;;;;;;;;
2021/04/02 11:08:01;;;;;;;9.8;4.5;;;;;;;;;;;;;
2021/04/02 11:10:26;;;;;;;10;5;;;;;;;;;;;;;
2021/04/02 11:12:52;;;;;;;10;5.3;;;;;;;;;;;;;
2021/04/02 11:15:18;;;;;;;12.7;6.3;;;;;;;;;;;;;
2021/04/02 11:17:42;;;;;;;9.2;4.8;;;;;;;;;;;;;
2021/04/02 11:20:07;;;;;;;11;5.3;;;;;;;;;;;;;
2021/04/02 11:22:32;;;;;;;10.8;5.7;;;;;;;;;;;;;
2021/04/02 11:24:57;;;;;;;11.9;5.8;;;;;;;;;;;;;
2021/04/02 11:27:22;;;;;;;9.3;4.6;;;;;;;;;;;;;
2021/04/02 11:29:47;;;;;;;12.5;6;;;;;;;;;;;;;
2021/04/02 11:32:12;;;;;;;10.1;5.5;;;;;;;;;;;;;
2021/04/02 11:34:37;;;;;;;9.9;5.5;;;;;;;;;;;;;
2021/04/02 11:37:03;;;;;;;10.1;4.4;;;;;;;;;;;;;
2021/04/02 11:39:28;;;;;;;7;4;;;;;;;;;;;;;
2021/04/02 11:41:53;;;;;;;13.3;5.3;;;;;;;;;;;;;
2021/04/02 11:44:18;;;;;;;9.6;5.1;;;;;;;;;;;;;
2021/04/02 11:46:45;;;;;;;11.1;4.6;;;;;;;;;;;;;
2021/04/02 11:49:10;;;;;;;9.5;4.6;;;;;;;;;;;;;
2021/04/02 11:51:36;;;;;;;9.6;5;;;;;;;;;;;;;
2021/04/02 11:54:01;;;;;;;7.7;3.7;;;;;;;;;;;;;
2021/04/02 11:56:27;;;;;;;8.2;5;;;;;;;;;;;;;
2021/04/02 11:58:52;;;;;;;8.8;4.5;;;;;;;;;;;;;
2021/04/02 12:01:17;;;;;;;9.3;5.2;;;;;;;;;;;;;
2021/04/02 12:03:42;;;;;;;7.6;4.6;;;;;;;;;;;;;
2021/04/02 12:06:09;;;;;;;10.7;5.1;;;;;;;;;;;;;
2021/04/02 12:08:34;;;;;;;13.5;5.1;;;;;;;;;;;;;
2021/04/02 12:11:00;;;;;;;9.1;4.9;;;;;;;;;;;;;
2021/04/02 12:13:25;;;;;;;6.6;4.8;;;;;;;;;;;;;
2021/04/02 12:15:53;;;;;;;13.2;5.3;;;;;;;;;;;;;
2021/04/02 12:18:18;;;;;;;7.7;4.7;;;;;;;;;;;;;
2021/04/02 12:20:43;;;;;;;9.1;5.4;;;;;;;;;;;;;
2021/04/02 12:23:08;;;;;;;6.4;4.5;;;;;;;;;;;;;
2021/04/02 12:25:34;;;;;;;8.6;5.1;;;;;;;;;;;;;
2021/04/02 12:27:59;;;;;;;10.2;5.4;;;;;;;;;;;;;
2021/04/02 12:30:24;;;;;;;12.8;6.6;;;;;;;;;;;;;
2021/04/02 12:32:49;;;;;;;12.2;5.7;;;;;;;;;;;;;
2021/04/02 12:35:14;;;;;;;12.9;6.2;;;;;;;;;;;;;
2021/04/02 12:37:40;;;;;;;14.3;5.1;;;;;;;;;;;;;
2021/04/02 12:40:05;;;;;;;11.4;5.8;;;;;;;;;;;;;
2021/04/02 12:42:30;;;;;;;14.4;6.1;;;;;;;;;;;;;
2021/04/02 12:44:55;;;;;;;8.7;6.3;;;;;;;;;;;;;
2021/04/02 12:47:21;;;;;;;10.9;6.3;;;;;;;;;;;;;
2021/04/02 12:49:46;;;;;;;15.3;7.4;;;;;;;;;;;;;
2021/04/02 12:52:13;;;;;;;14.1;7.8;;;;;;;;;;;;;
2021/04/02 12:54:37;;;;;;;15;7.7;;;;;;;;;;;;;
2021/04/02 12:57:03;;;;;;;14.1;7;;;;;;;;;;;;;
2021/04/02 12:59:28;;;;;;;9.9;6.1;;;;;;;;;;;;;
2021/04/02 13:01:54;;;;;;;13.9;7.6;;;;;;;;;;;;;
2021/04/02 13:04:19;;;;;;;11.5;7.1;;;;;;;;;;;;;
2021/04/02 13:06:44;;;;;;;14.7;7.1;;;;;;;;;;;;;
2021/04/02 13:09:09;;;;;;;19.6;7.4;;;;;;;;;;;;;
2021/04/02 13:11:34;;;;;;;10.4;7.2;;;;;;;;;;;;;
2021/04/02 13:13:59;;;;;;;16.1;7.5;;;;;;;;;;;;;
2021/04/02 13:16:25;;;;;;;15.9;7.9;;;;;;;;;;;;;
2021/04/02 13:18:50;;;;;;;13;7.3;;;;;;;;;;;;;
2021/04/02 13:21:15;;;;;;;13;7.3;;;;;;;;;;;;;
2021/04/02 13:23:41;;;;;;;14.5;6.9;;;;;;;;;;;;;
2021/04/02 13:26:06;;;;;;;15.9;7.1;;;;;;;;;;;;;
2021/04/02 13:28:33;;;;;;;9.5;6.4;;;;;;;;;;;;;
2021/04/02 13:30:58;;;;;;;15.2;7.4;;;;;;;;;;;;;
2021/04/02 13:33:24;;;;;;;14.7;7.3;;;;;;;;;;;;;
2021/04/02 13:35:49;;;;;;;12.4;7.6;;;;;;;;;;;;;
2021/04/02 13:38:15;;;;;;;16.4;6.8;;;;;;;;;;;;;
2021/04/02 13:40:40;;;;;;;14.7;7.1;;;;;;;;;;;;;
2021/04/02 13:43:06;;;;;;;12.8;8.5;;;;;;;;;;;;;
2021/04/02 13:45:31;;;;;;;14.6;7.4;;;;;;;;;;;;;
2021/04/02 13:47:57;;;;;;;18;7.4;;;;;;;;;;;;;
2021/04/02 13:50:22;;;;;;;13.4;7.8;;;;;;;;;;;;;
2021/04/02 13:52:47;;;;;;;11.6;6.5;;;;;;;;;;;;;
2021/04/02 13:55:13;;;;;;;12.1;6.8;;;;;;;;;;;;;
2021/04/02 13:57:38;;;;;;;12.4;6.8;;;;;;;;;;;;;
2021/04/02 14:00:04;;;;;;;8;5.5;;;;;;;;;;;;;
2021/04/02 14:02:29;;;;;;;18.8;8.4;;;;;;;;;;;;;
2021/04/02 14:04:55;;;;;;;12.6;6.7;;;;;;;;;;;;;
2021/04/02 14:07:20;;;;;;;16.1;6.8;;;;;;;;;;;;;
2021/04/02 14:09:46;;;;;;;15.5;7.1;;;;;;;;;;;;;
2021/04/02 14:12:11;;;;;;;10.3;7.2;;;;;;;;;;;;;
2021/04/02 14:14:37;;;;;;;17.5;6.9;;;;;;;;;;;;;
2021/04/02 14:17:02;;;;;;;14.9;7.3;;;;;;;;;;;;;
2021/04/02 14:19:29;;;;;;;16.2;7;;;;;;;;;;;;;
2021/04/02 14:21:54;;;;;;;15.9;7.1;;;;;;;;;;;;;
2021/04/02 14:24:20;;;;;;;8.1;5.4;;;;;;;;;;;;;
2021/04/02 14:26:45;;;;;;;12.8;6.1;;;;;;;;;;;;;
2021/04/02 14:29:10;;;;;;;22.3;8.1;;;;;;;;;;;;;
2021/04/02 14:31:35;;;;;;;12.9;7.3;;;;;;;;;;;;;
2021/04/02 14:34:01;;;;;;;13.4;6.4;;;;;;;;;;;;;
2021/04/02 14:36:26;;;;;;;11.9;6.3;;;;;;;;;;;;;
2021/04/02 14:38:51;;;;;;;11.8;7.2;;;;;;;;;;;;;
2021/04/02 14:41:17;;;;;;;19.6;6.3;;;;;;;;;;;;;
2021/04/02 14:43:42;;;;;;;17.5;7.7;;;;;;;;;;;;;
2021/04/02 14:46:07;;;;;;;13;7;;;;;;;;;;;;;
2021/04/02 14:48:32;;;;;;;13.8;6.3;;;;;;;;;;;;;
2021/04/02 14:51:00;;;;;;;10.7;6.1;;;;;;;;;;;;;
2021/04/02 14:53:24;;;;;;;21.1;8.3;;;;;;;;;;;;;
2021/04/02 14:55:48;;;;;;;12.3;6.4;;;;;;;;;;;;;
2021/04/02 14:58:14;;;;;;;8.6;6.1;;;;;;;;;;;;;
2021/04/02 15:00:43;;;;;;;14.6;5.9;;;;;;;;;;;;;
2021/04/02 15:03:04;;;;;;;9.9;6.4;;;;;;;;;;;;;
2021/04/02 15:05:29;;;;;;;10.7;6.7;;;;;;;;;;;;;
2021/04/02 15:07:54;;;;;;;15.8;6.3;;;;;;;;;;;;;
2021/04/02 15:10:20;;;;;;;10.1;6.8;;;;;;;;;;;;;
2021/04/02 15:12:44;;;;;;;12.7;6.8;;;;;;;;;;;;;
2021/04/02 15:15:10;;;;;;;15.5;6.8;;;;;;;;;;;;;
2021/04/02 15:17:35;;;;;;;12.9;6.3;;;;;;;;;;;;;
2021/04/02 15:20:01;;;;;;;9.1;6.5;;;;;;;;;;;;;
2021/04/02 15:22:27;;;;;;;13.6;6.7;;;;;;;;;;;;;
2021/04/02 15:24:53;;;;;;;11.1;6.2;;;;;;;;;;;;;
2021/04/02 15:27:18;;;;;;;10.5;5.5;;;;;;;;;;;;;
2021/04/02 15:29:43;;;;;;;12.1;6.2;;;;;;;;;;;;;
2021/04/02 15:32:08;;;;;;;7.7;5.5;;;;;;;;;;;;;
2021/04/02 15:34:33;;;;;;;13;6;;;;;;;;;;;;;
2021/04/02 15:36:58;;;;;;;13.8;7.2;;;;;;;;;;;;;
2021/04/02 15:39:23;;;;;;;14.6;6;;;;;;;;;;;;;
2021/04/02 15:41:50;;;;;;;8.8;6.5;;;;;;;;;;;;;
2021/04/02 15:44:14;;;;;;;11.2;7.5;;;;;;;;;;;;;
2021/04/02 15:46:40;;;;;;;13.2;6.4;;;;;;;;;;;;;
2021/04/02 15:49:05;;;;;;;14.4;7.3;;;;;;;;;;;;;
2021/04/02 15:51:32;;;;;;;7.5;5.4;;;;;;;;;;;;;
2021/04/02 15:53:57;;;;;;;9.1;6.1;;;;;;;;;;;;;
2021/04/02 15:56:23;;;;;;;9.4;6.6;;;;;;;;;;;;;
2021/04/02 15:58:48;;;;;;;9;5.8;;;;;;;;;;;;;
2021/04/02 16:01:14;;;;;;;9.9;6.5;;;;;;;;;;;;;
2021/04/02 16:03:39;;;;;;;14.1;7.3;;;;;;;;;;;;;
2021/04/02 16:06:05;;;;;;;12.7;6.5;;;;;;;;;;;;;
2021/04/02 16:08:30;;;;;;;11.6;6.2;;;;;;;;;;;;;
2021/04/02 16:10:55;;;;;;;12.8;5.8;;;;;;;;;;;;;
2021/04/02 16:13:20;;;;;;;11.5;5.9;;;;;;;;;;;;;
2021/04/02 16:15:45;;;;;;;18;6.7;;;;;;;;;;;;;
2021/04/02 16:18:11;;;;;;;8.7;5.1;;;;;;;;;;;;;
2021/04/02 16:20:36;;;;;;;15.1;6.2;;;;;;;;;;;;;
2021/04/02 16:23:01;;;;;;;16.7;6.4;;;;;;;;;;;;;
2021/04/02 16:25:26;;;;;;;9.8;6.3;;;;;;;;;;;;;
2021/04/02 16:27:52;;;;;;;13.8;6.6;;;;;;;;;;;;;
2021/04/02 16:30:18;;;;;;;15;5.8;;;;;;;;;;;;;
2021/04/02 16:32:43;;;;;;;13.4;6.6;;;;;;;;;;;;;
2021/04/02 16:35:08;;;;;;;12.4;7.7;;;;;;;;;;;;;
2021/04/02 16:37:34;;;;;;;16.2;6.4;;;;;;;;;;;;;
2021/04/02 16:40:00;;;;;;;17.2;7.3;;;;;;;;;;;;;
2021/04/02 16:42:25;;;;;;;12;5.4;;;;;;;;;;;;;
2021/04/02 16:44:50;;;;;;;14.9;6.7;;;;;;;;;;;;;
2021/04/02 16:47:17;;;;;;;12.3;5.9;;;;;;;;;;;;;
2021/04/02 16:49:42;;;;;;;9.4;6.2;;;;;;;;;;;;;
2021/04/02 16:52:08;;;;;;;14;6.1;;;;;;;;;;;;;
2021/04/02 16:54:33;;;;;;;15.8;6.6;;;;;;;;;;;;;
2021/04/02 16:56:58;;;;;;;10.9;6.7;;;;;;;;;;;;;
2021/04/02 16:59:24;;;;;;;13.5;6.9;;;;;;;;;;;;;
2021/04/02 17:01:49;;;;;;;11.2;6.7;;;;;;;;;;;;;
2021/04/02 17:04:14;;;;;;;18.3;6.5;;;;;;;;;;;;;
2021/04/02 17:06:39;;;;;;;21.1;6.9;;;;;;;;;;;;;
2021/04/02 17:09:04;;;;;;;8.8;6.7;;;;;;;;;;;;;
2021/04/02 17:11:29;;;;;;;13.3;7.5;;;;;;;;;;;;;
2021/04/02 17:13:56;;;;;;;6.6;5.8;;;;;;;;;;;;;
2021/04/02 17:16:20;;;;;;;18.5;7;;;;;;;;;;;;;
2021/04/02 17:18:46;;;;;;;13.9;7.3;;;;;;;;;;;;;
2021/04/02 17:21:11;;;;;;;16.8;7.2;;;;;;;;;;;;;
2021/04/02 17:23:37;;;;;;;13.9;6.7;;;;;;;;;;;;;
2021/04/02 17:26:02;;;;;;;10.8;5.9;;;;;;;;;;;;;
2021/04/02 17:28:29;;;;;;;10.9;6.1;;;;;;;;;;;;;
2021/04/02 17:30:54;;;;;;;11.5;6.9;;;;;;;;;;;;;
2021/04/02 17:33:19;;;;;;;15.1;6.9;;;;;;;;;;;;;
2021/04/02 17:35:45;;;;;;;16.5;7.5;;;;;;;;;;;;;
2021/04/02 17:38:11;;;;;;;13.7;6.6;;;;;;;;;;;;;
2021/04/02 17:40:36;;;;;;;9.5;6.7;;;;;;;;;;;;;
2021/04/02 17:43:02;;;;;;;10.6;5.9;;;;;;;;;;;;;
2021/04/02 17:45:27;;;;;;;11;7;;;;;;;;;;;;;
2021/04/02 17:47:53;;;;;;;11.8;6.7;;;;;;;;;;;;;
2021/04/02 17:50:18;;;;;;;13.3;6.8;;;;;;;;;;;;;
2021/04/02 17:52:43;;;;;;;12.6;6.1;;;;;;;;;;;;;
2021/04/02 17:55:08;;;;;;;12.6;7.3;;;;;;;;;;;;;
2021/04/02 17:57:34;;;;;;;16.5;7;;;;;;;;;;;;;
2021/04/02 17:59:59;;;;;;;13.5;6.9;;;;;;;;;;;;;
2021/04/02 18:02:24;;;;;;;10.3;6.9;;;;;;;;;;;;;
2021/04/02 18:04:49;;;;;;;15.6;7.3;;;;;;;;;;;;;
2021/04/02 18:07:14;;;;;;;12;7.5;;;;;;;;;;;;;
2021/04/02 18:09:40;;;;;;;13.6;7.7;;;;;;;;;;;;;
2021/04/02 18:12:05;;;;;;;12.2;6.1;;;;;;;;;;;;;
2021/04/02 18:14:34;;;;;;;9.9;6.5;;;;;;;;;;;;;
2021/04/02 18:16:57;;;;;;;13.8;6.6;;;;;;;;;;;;;
2021/04/02 18:19:20;;;;;;;16.2;8.3;;;;;;;;;;;;;
2021/04/02 18:21:45;;;;;;;11.2;6.1;;;;;;;;;;;;;
2021/04/02 18:24:12;;;;;;;14.8;6.9;;;;;;;;;;;;;
2021/04/02 18:26:37;;;;;;;10.2;7.2;;;;;;;;;;;;;
2021/04/02 18:29:03;;;;;;;11.2;7.1;;;;;;;;;;;;;
2021/04/02 18:31:28;;;;;;;11.6;6.1;;;;;;;;;;;;;
2021/04/02 18:33:54;;;;;;;15.3;6.7;;;;;;;;;;;;;
2021/04/02 18:36:19;;;;;;;13.3;7.3;;;;;;;;;;;;;